Bluebell, Utah
Current Conditions -  °F | °C
As of 12:53 AM on Saturday 25 Oct 2014 (Local Time) from KVEL Reporting Station
Clear Clear  
Wind Chill: 42°   Ceiling: Unl
Heat Index: 45°   Visibility: 10mi
Dew Point: 33°   Wind: 6mph
Humidity: 63%   Direction: 270°W
Pressure: 30.25"   Gusts: NA
Location:  40.36°N, 110.22°W
Report Text: KVEL 250653Z AUTO 27005KT 10SM CLR 07/01 A3025 RMK AO2 SLP212 T00720006 402110028
Loading
Personal Weather Stations






























Interactive Weather Map New forecast layout! Learn more

10-Day Weather Forecast

Advertisements
Track Severe Weather on mobile